createdAt,value
2017-09-26T00:01:37.685Z,61.10
2017-09-26T00:04:07.597Z,61.20
2017-09-26T00:06:37.408Z,61.00
2017-09-26T00:09:07.730Z,61.00
2017-09-26T00:11:36.949Z,60.80
2017-09-26T00:14:06.638Z,60.60
2017-09-26T00:16:36.994Z,60.80
2017-09-26T00:19:07.457Z,60.90
2017-09-26T00:21:37.045Z,60.80
2017-09-26T00:24:07.199Z,60.60
2017-09-26T00:26:37.137Z,60.10
2017-09-26T00:29:06.607Z,60.20
2017-09-26T00:31:37.436Z,60.40
2017-09-26T00:34:06.623Z,60.30
2017-09-26T00:36:36.104Z,60.20
2017-09-26T00:39:05.392Z,60.40
2017-09-26T00:41:34.692Z,61.10
2017-09-26T00:44:03.812Z,60.40
2017-09-26T00:46:36.610Z,60.00
2017-09-26T00:49:06.692Z,60.00
2017-09-26T00:51:36.120Z,60.00
2017-09-26T00:54:05.512Z,60.00
2017-09-26T00:56:34.906Z,59.90
2017-09-26T00:59:08.028Z,59.80
2017-09-26T01:01:41.102Z,59.80
2017-09-26T01:04:16.807Z,59.90
2017-09-26T01:07:02.760Z,60.00
2017-09-26T01:09:33.411Z,60.40
2017-09-26T01:12:02.544Z,60.50
2017-09-26T01:14:31.437Z,60.50
2017-09-26T01:17:04.039Z,60.20
2017-09-26T01:19:34.896Z,60.20
2017-09-26T01:22:04.096Z,60.20
2017-09-26T01:24:33.050Z,60.30
2017-09-26T01:27:02.377Z,60.40
2017-09-26T01:29:35.254Z,60.40
2017-09-26T01:32:05.668Z,60.60
2017-09-26T01:34:38.751Z,60.50
2017-09-26T01:37:08.417Z,60.70
2017-09-26T01:39:38.533Z,60.60
2017-09-26T01:42:07.472Z,60.70
2017-09-26T01:44:36.609Z,60.90
2017-09-26T01:47:05.657Z,60.70
2017-09-26T01:49:34.758Z,60.60
2017-09-26T01:52:03.886Z,61.00
2017-09-26T01:54:33.152Z,61.20
2017-09-26T01:57:05.836Z,61.20
2017-09-26T01:59:35.987Z,61.20
2017-09-26T02:02:04.947Z,61.30
2017-09-26T02:04:34.397Z,61.20
2017-09-26T02:07:04.475Z,61.60
2017-09-26T02:09:33.561Z,61.60
2017-09-26T02:12:02.859Z,61.70
2017-09-26T02:14:31.792Z,61.90
2017-09-26T02:17:01.159Z,62.00
2017-09-26T02:19:30.049Z,62.00
2017-09-26T02:21:59.811Z,61.60
2017-09-26T02:24:31.678Z,61.80
2017-09-26T02:27:01.026Z,61.70
2017-09-26T02:29:29.809Z,61.80
2017-09-26T02:32:03.725Z,61.90
2017-09-26T02:34:32.402Z,61.80
2017-09-26T02:37:02.486Z,61.50
2017-09-26T02:39:33.867Z,61.60
2017-09-26T02:42:02.896Z,61.70
2017-09-26T02:44:32.165Z,61.90
2017-09-26T02:47:02.688Z,63.10
2017-09-26T02:49:31.692Z,63.30
2017-09-26T02:52:06.124Z,63.70
2017-09-26T02:54:36.426Z,63.60
2017-09-26T02:57:05.528Z,63.90
2017-09-26T02:59:35.891Z,63.80
2017-09-26T03:02:05.308Z,63.70
2017-09-26T03:04:34.562Z,63.80
2017-09-26T03:07:03.705Z,64.40
2017-09-26T03:09:32.763Z,64.40
2017-09-26T03:12:01.794Z,63.60
2017-09-26T03:14:30.638Z,63.50
2017-09-26T03:17:00.655Z,63.90
2017-09-26T03:19:29.949Z,63.80
2017-09-26T03:21:58.758Z,63.90
2017-09-26T03:24:27.429Z,64.00
2017-09-26T03:26:56.217Z,64.10
2017-09-26T03:29:24.942Z,64.60
2017-09-26T03:31:53.791Z,64.50
2017-09-26T03:34:22.990Z,64.90
2017-09-26T03:36:51.915Z,64.90
2017-09-26T03:39:26.163Z,65.00
2017-09-26T03:41:55.158Z,65.10
2017-09-26T03:44:24.049Z,65.20
2017-09-26T03:46:52.872Z,65.20
2017-09-26T03:49:22.216Z,65.20
2017-09-26T03:51:51.010Z,65.30
2017-09-26T03:54:19.714Z,65.40
2017-09-26T03:56:49.557Z,65.20
2017-09-26T03:59:18.476Z,65.20
2017-09-26T04:01:47.347Z,65.00
2017-09-26T04:04:17.161Z,64.80
2017-09-26T04:06:46.152Z,64.80
2017-09-26T04:09:15.048Z,64.90
2017-09-26T04:11:44.549Z,65.10
2017-09-26T04:14:13.349Z,64.90
2017-09-26T04:16:42.124Z,64.40
2017-09-26T04:19:11.323Z,64.40
2017-09-26T04:21:40.111Z,64.50
2017-09-26T04:24:09.727Z,65.10
2017-09-26T04:26:38.330Z,64.90
2017-09-26T04:29:06.985Z,64.90
2017-09-26T04:31:36.386Z,64.50
2017-09-26T04:34:05.145Z,64.70
2017-09-26T04:36:33.973Z,64.50
2017-09-26T04:39:02.866Z,64.60
2017-09-26T04:41:31.649Z,64.00
2017-09-26T04:44:00.745Z,64.20
2017-09-26T04:46:29.778Z,63.80
2017-09-26T04:49:01.657Z,64.10
2017-09-26T04:51:33.546Z,64.10
2017-09-26T04:54:03.773Z,64.60
2017-09-26T04:56:34.108Z,64.80
2017-09-26T04:59:03.359Z,64.80
2017-09-26T05:01:32.406Z,64.50
2017-09-26T05:04:02.118Z,64.70
2017-09-26T05:06:31.837Z,64.60
2017-09-26T05:09:01.189Z,64.50
2017-09-26T05:11:30.693Z,64.60
2017-09-26T05:14:00.666Z,65.20
2017-09-26T05:16:30.097Z,65.20
2017-09-26T05:18:58.969Z,65.10
2017-09-26T05:21:29.031Z,65.20
2017-09-26T05:23:58.177Z,65.20
2017-09-26T05:26:28.158Z,65.40
2017-09-26T05:28:56.876Z,65.30
2017-09-26T05:31:25.960Z,65.20
2017-09-26T05:33:55.467Z,65.20
2017-09-26T05:36:25.293Z,65.10
2017-09-26T05:38:55.926Z,65.50
2017-09-26T05:41:26.059Z,65.30
2017-09-26T05:43:56.418Z,65.10
2017-09-26T05:46:26.270Z,65.30
2017-09-26T05:48:57.159Z,65.60
2017-09-26T05:51:26.658Z,65.50
2017-09-26T05:53:55.412Z,65.20
2017-09-26T05:56:24.190Z,65.50
2017-09-26T05:58:55.199Z,65.00
2017-09-26T06:01:24.242Z,65.00
2017-09-26T06:03:53.277Z,64.90
2017-09-26T06:06:22.209Z,64.60
2017-09-26T06:08:52.645Z,64.00
2017-09-26T06:11:21.420Z,63.70
2017-09-26T06:13:50.976Z,62.40
2017-09-26T06:16:20.023Z,62.20
2017-09-26T06:18:49.734Z,62.40
2017-09-26T06:21:18.624Z,62.30
2017-09-26T06:23:47.824Z,62.00
2017-09-26T06:26:17.655Z,61.80
2017-09-26T06:28:46.989Z,61.60
2017-09-26T06:31:17.321Z,61.50
2017-09-26T06:33:47.075Z,61.10
2017-09-26T06:36:16.274Z,61.00
2017-09-26T06:38:45.482Z,60.80
2017-09-26T06:41:14.362Z,60.50
2017-09-26T06:43:45.096Z,60.70
2017-09-26T06:46:20.384Z,60.80
2017-09-26T06:48:50.945Z,60.60
2017-09-26T06:51:20.774Z,59.80
2017-09-26T06:53:49.570Z,59.70
2017-09-26T06:56:18.641Z,59.30
2017-09-26T06:58:47.769Z,59.10
2017-09-26T07:01:18.817Z,58.60
2017-09-26T07:03:47.792Z,56.90
2017-09-26T07:06:16.706Z,55.20
2017-09-26T07:08:46.653Z,50.60
2017-09-26T07:11:15.862Z,50.50
2017-09-26T07:13:44.588Z,49.00
2017-09-26T07:16:13.584Z,47.10
2017-09-26T07:18:43.080Z,46.60
2017-09-26T07:21:13.297Z,47.80
2017-09-26T07:23:42.814Z,46.20
2017-09-26T07:26:12.260Z,48.30
2017-09-26T07:28:42.132Z,48.50
2017-09-26T07:31:11.230Z,48.50
2017-09-26T07:33:40.283Z,49.50
2017-09-26T07:36:09.011Z,49.30
2017-09-26T07:38:38.226Z,48.90
2017-09-26T07:41:07.571Z,48.70
2017-09-26T07:43:37.592Z,48.30
2017-09-26T07:46:06.508Z,47.20
2017-09-26T07:48:35.515Z,47.70
2017-09-26T07:51:04.620Z,47.80
2017-09-26T07:53:33.716Z,47.80
2017-09-26T07:56:10.147Z,46.10
2017-09-26T07:58:40.501Z,45.50
2017-09-26T08:01:10.221Z,44.30
2017-09-26T08:03:43.885Z,45.60
2017-09-26T08:06:13.559Z,46.40
2017-09-26T08:08:42.864Z,47.70
2017-09-26T08:11:13.328Z,50.60
2017-09-26T08:13:43.398Z,51.70
2017-09-26T08:16:12.034Z,51.60
2017-09-26T08:18:41.592Z,52.00
2017-09-26T08:21:10.597Z,52.40
2017-09-26T08:23:39.763Z,52.70
2017-09-26T08:26:09.796Z,52.70
2017-09-26T08:28:38.452Z,52.30
2017-09-26T08:31:07.094Z,52.60
2017-09-26T08:33:37.002Z,53.10
2017-09-26T08:36:06.088Z,52.40
2017-09-26T08:38:34.799Z,52.60
2017-09-26T08:41:03.559Z,52.80
2017-09-26T08:43:32.346Z,52.40
2017-09-26T08:46:01.097Z,52.30
2017-09-26T08:48:29.754Z,52.60
2017-09-26T08:50:59.160Z,52.20
2017-09-26T08:53:27.783Z,52.20
2017-09-26T08:55:56.653Z,52.50
2017-09-26T08:58:25.476Z,53.60
2017-09-26T09:00:54.232Z,53.90
2017-09-26T09:03:22.995Z,53.40
2017-09-26T09:05:51.724Z,53.50
2017-09-26T09:08:20.517Z,52.60
2017-09-26T09:10:49.600Z,53.00
2017-09-26T09:13:18.304Z,54.60
2017-09-26T09:15:47.826Z,55.30
2017-09-26T09:18:16.599Z,54.50
2017-09-26T09:20:45.203Z,54.20
2017-09-26T09:23:15.011Z,53.80
2017-09-26T09:25:44.950Z,52.70
2017-09-26T09:28:13.852Z,53.00
2017-09-26T09:30:42.743Z,53.50
2017-09-26T09:33:12.781Z,53.80
2017-09-26T09:35:41.762Z,53.80
2017-09-26T09:38:11.430Z,54.80
2017-09-26T09:40:40.136Z,54.80
2017-09-26T09:43:09.623Z,55.10
2017-09-26T09:45:38.739Z,55.10
2017-09-26T09:48:07.419Z,55.00
2017-09-26T09:50:37.116Z,54.30
2017-09-26T09:53:06.565Z,53.10
2017-09-26T09:55:35.579Z,53.00
2017-09-26T09:58:04.246Z,52.90
2017-09-26T10:00:33.041Z,52.60
2017-09-26T10:03:02.657Z,52.60
2017-09-26T10:05:31.405Z,52.60
2017-09-26T10:08:00.216Z,52.20
2017-09-26T10:10:29.407Z,52.40
2017-09-26T10:12:58.332Z,52.40
2017-09-26T10:15:27.172Z,51.40
2017-09-26T10:17:55.844Z,51.40
2017-09-26T10:20:25.314Z,51.20
2017-09-26T10:22:55.028Z,51.20
2017-09-26T10:25:24.405Z,52.10
2017-09-26T10:27:53.111Z,53.00
2017-09-26T10:30:22.822Z,52.80
2017-09-26T10:32:51.650Z,52.20
2017-09-26T10:35:20.480Z,51.30
2017-09-26T10:37:49.362Z,51.60
2017-09-26T10:40:18.196Z,51.10
2017-09-26T10:42:47.079Z,50.90
2017-09-26T10:45:15.963Z,50.20
2017-09-26T10:47:45.061Z,50.10
2017-09-26T10:50:14.773Z,51.20
2017-09-26T10:52:43.555Z,51.80
2017-09-26T10:55:12.274Z,51.80
2017-09-26T10:57:40.903Z,51.80
2017-09-26T11:00:09.748Z,51.20
2017-09-26T11:02:40.542Z,51.00
2017-09-26T11:05:13.023Z,50.90
2017-09-26T11:07:41.613Z,50.80
2017-09-26T11:10:10.239Z,50.60
2017-09-26T11:12:40.566Z,51.10
2017-09-26T11:15:09.505Z,51.00
2017-09-26T11:17:39.187Z,51.80
2017-09-26T11:20:08.007Z,51.70
2017-09-26T11:22:36.737Z,51.80
2017-09-26T11:25:06.293Z,51.50
2017-09-26T11:27:35.872Z,51.50
2017-09-26T11:30:04.946Z,51.80
2017-09-26T11:32:34.032Z,51.50
2017-09-26T11:35:02.661Z,50.80
2017-09-26T11:37:31.395Z,51.50
2017-09-26T11:39:59.999Z,51.40
2017-09-26T11:42:29.514Z,51.20
2017-09-26T11:44:58.775Z,51.10
2017-09-26T11:47:27.524Z,51.00
2017-09-26T11:49:57.418Z,51.50
2017-09-26T11:52:27.324Z,51.60
2017-09-26T11:54:57.041Z,51.60
2017-09-26T11:57:26.751Z,51.30
2017-09-26T11:59:56.832Z,51.30
2017-09-26T12:02:25.708Z,49.90
2017-09-26T12:04:54.334Z,47.60
2017-09-26T12:07:23.021Z,44.00
2017-09-26T12:09:51.884Z,42.20
2017-09-26T12:12:20.625Z,43.90
2017-09-26T12:14:49.412Z,42.10
2017-09-26T12:17:18.061Z,40.50
2017-09-26T12:19:46.774Z,39.50
2017-09-26T12:22:16.408Z,39.90
2017-09-26T12:24:45.023Z,39.50
2017-09-26T12:27:13.647Z,39.00
2017-09-26T12:29:43.118Z,38.30
2017-09-26T12:32:12.156Z,37.50
2017-09-26T12:34:41.869Z,37.40
2017-09-26T12:37:11.331Z,36.20
2017-09-26T12:39:40.879Z,36.20
2017-09-26T12:42:12.388Z,36.30
2017-09-26T12:44:42.246Z,36.20
2017-09-26T12:47:11.875Z,35.40
2017-09-26T12:49:40.599Z,36.70
2017-09-26T12:52:10.162Z,37.50
2017-09-26T12:54:38.913Z,39.50
2017-09-26T12:57:07.727Z,40.00
2017-09-26T12:59:36.433Z,38.70
2017-09-26T13:02:05.246Z,38.70
2017-09-26T13:04:34.218Z,38.90
2017-09-26T13:07:03.639Z,37.30
2017-09-26T13:09:32.256Z,37.30
2017-09-26T13:12:01.151Z,37.70
2017-09-26T13:14:30.600Z,36.70
2017-09-26T13:16:59.250Z,36.70
2017-09-26T13:19:28.129Z,37.80
2017-09-26T13:21:56.817Z,38.10
2017-09-26T13:24:25.468Z,38.50
2017-09-26T13:26:54.095Z,42.30
2017-09-26T13:29:24.645Z,44.60
2017-09-26T13:31:53.268Z,44.60
2017-09-26T13:34:24.083Z,46.50
2017-09-26T13:36:55.612Z,46.70
2017-09-26T13:39:24.742Z,46.80
2017-09-26T13:41:53.401Z,46.50
2017-09-26T13:44:24.342Z,42.50
2017-09-26T13:46:54.619Z,40.50
2017-09-26T13:49:25.075Z,40.40
2017-09-26T13:51:53.825Z,39.90
2017-09-26T13:54:22.812Z,41.20
2017-09-26T13:56:51.484Z,43.60
2017-09-26T13:59:20.562Z,46.70
2017-09-26T14:01:50.278Z,48.10
2017-09-26T14:04:18.882Z,49.40
2017-09-26T14:06:50.149Z,50.70
2017-09-26T14:09:19.212Z,51.60
2017-09-26T14:11:47.978Z,51.20
2017-09-26T14:14:18.357Z,51.10
2017-09-26T14:17:08.642Z,52.60
2017-09-26T14:19:38.938Z,52.60
2017-09-26T14:22:16.466Z,53.40
2017-09-26T14:24:45.395Z,54.10
2017-09-26T14:27:15.119Z,53.80
2017-09-26T14:29:45.661Z,54.00
2017-09-26T14:32:15.026Z,54.00
2017-09-26T14:34:44.056Z,53.90
2017-09-26T14:37:12.841Z,53.50
2017-09-26T14:39:42.347Z,54.10
2017-09-26T14:42:11.127Z,54.10
2017-09-26T14:44:39.900Z,54.40
2017-09-26T14:47:08.548Z,54.80
2017-09-26T14:49:37.279Z,55.10
2017-09-26T14:52:06.989Z,55.20
2017-09-26T14:54:35.784Z,55.20
2017-09-26T14:57:04.439Z,55.60
2017-09-26T14:59:33.222Z,55.50
2017-09-26T15:02:03.328Z,55.50
2017-09-26T15:04:32.146Z,55.50
2017-09-26T15:07:01.100Z,55.80
2017-09-26T15:09:29.843Z,55.60
2017-09-26T15:11:58.493Z,55.80
2017-09-26T15:14:28.315Z,56.70
2017-09-26T15:16:57.063Z,56.60
2017-09-26T15:19:26.041Z,57.10
2017-09-26T15:21:55.014Z,57.10
2017-09-26T15:24:24.612Z,56.70
2017-09-26T15:26:53.251Z,56.60
2017-09-26T15:29:21.998Z,57.10
2017-09-26T15:31:50.653Z,57.00
2017-09-26T15:34:19.516Z,57.20
2017-09-26T15:36:48.492Z,56.90
2017-09-26T15:39:17.499Z,56.60
2017-09-26T15:41:46.131Z,56.60
2017-09-26T15:44:16.064Z,56.70
2017-09-26T15:46:46.093Z,56.70
2017-09-26T15:49:17.711Z,57.20
2017-09-26T15:51:47.134Z,57.60
2017-09-26T15:54:15.939Z,57.50
2017-09-26T15:56:45.294Z,57.20
2017-09-26T15:59:14.097Z,57.20
2017-09-26T16:01:44.687Z,57.30
2017-09-26T16:04:14.446Z,57.20
2017-09-26T16:06:44.177Z,57.30
2017-09-26T16:09:14.055Z,57.40
2017-09-26T16:11:43.943Z,57.70
2017-09-26T16:14:13.676Z,57.80
2017-09-26T16:16:42.674Z,58.10
2017-09-26T16:19:11.656Z,58.00
2017-09-26T16:21:41.548Z,58.40
2017-09-26T16:24:11.294Z,58.40
2017-09-26T16:26:41.600Z,58.20
2017-09-26T16:29:10.415Z,58.50
2017-09-26T16:31:40.270Z,58.60
2017-09-26T16:34:08.889Z,58.80
2017-09-26T16:36:37.736Z,58.80
2017-09-26T16:39:06.569Z,59.30
2017-09-26T16:41:35.445Z,59.60
2017-09-26T16:44:04.110Z,59.70
2017-09-26T16:46:32.996Z,59.90
2017-09-26T16:49:01.865Z,60.10
2017-09-26T16:51:32.393Z,59.60
2017-09-26T16:54:01.092Z,59.90
2017-09-26T16:56:30.044Z,62.30
2017-09-26T16:58:59.804Z,63.40
2017-09-26T17:01:30.198Z,65.70
2017-09-26T17:03:59.222Z,65.60
2017-09-26T17:06:28.560Z,66.00
2017-09-26T17:08:57.622Z,66.50
2017-09-26T17:11:26.442Z,66.80
2017-09-26T17:13:55.564Z,67.10
2017-09-26T17:16:24.596Z,67.30
2017-09-26T17:18:53.779Z,66.70
2017-09-26T17:21:22.645Z,66.40
2017-09-26T17:23:51.583Z,66.40
2017-09-26T17:26:20.873Z,66.40
2017-09-26T17:28:49.625Z,66.40
2017-09-26T17:31:19.314Z,66.40
2017-09-26T17:33:49.488Z,66.20
2017-09-26T17:36:19.075Z,65.90
2017-09-26T17:38:47.856Z,66.10
2017-09-26T17:41:16.524Z,66.10
2017-09-26T17:43:45.208Z,66.50
2017-09-26T17:46:14.016Z,66.20
2017-09-26T17:48:45.728Z,65.90
2017-09-26T17:51:15.387Z,65.60
2017-09-26T17:53:44.132Z,65.30
2017-09-26T17:56:12.928Z,65.30
2017-09-26T17:58:41.536Z,65.60
2017-09-26T18:01:10.337Z,66.40
2017-09-26T18:03:39.865Z,66.60
2017-09-26T18:06:08.556Z,66.60
2017-09-26T18:08:37.741Z,68.30
2017-09-26T18:11:06.488Z,68.00
2017-09-26T18:13:35.067Z,68.10
2017-09-26T18:16:03.942Z,67.70
2017-09-26T18:18:32.816Z,68.20
2017-09-26T18:21:02.190Z,68.70
2017-09-26T18:23:31.005Z,68.70
2017-09-26T18:25:59.777Z,70.40
2017-09-26T18:28:28.352Z,70.40
2017-09-26T18:30:57.771Z,71.20
2017-09-26T18:33:26.838Z,71.10
2017-09-26T18:35:56.262Z,72.20
2017-09-26T18:38:25.249Z,72.70
2017-09-26T18:40:54.402Z,73.90
2017-09-26T18:43:25.363Z,74.20
2017-09-26T18:45:55.532Z,74.80
2017-09-26T18:48:25.581Z,79.20
2017-09-26T18:50:54.231Z,79.20
2017-09-26T18:53:22.950Z,79.00
2017-09-26T18:55:52.050Z,80.70
2017-09-26T18:58:21.393Z,80.30
2017-09-26T19:00:50.248Z,84.60
2017-09-26T19:03:20.199Z,85.90
2017-09-26T19:05:49.631Z,85.90
2017-09-26T19:08:18.456Z,85.90
2017-09-26T19:10:47.439Z,86.50
2017-09-26T19:13:16.436Z,86.30
2017-09-26T19:15:47.455Z,85.20
2017-09-26T19:18:18.079Z,85.40
2017-09-26T19:20:48.894Z,84.90
2017-09-26T19:23:18.034Z,83.80
2017-09-26T19:25:46.919Z,83.20
2017-09-26T19:28:15.835Z,82.50
2017-09-26T19:30:45.491Z,83.50
2017-09-26T19:33:14.225Z,83.50
2017-09-26T19:35:42.913Z,82.30
2017-09-26T19:38:13.040Z,82.40
2017-09-26T19:40:42.487Z,83.00
2017-09-26T19:43:12.042Z,82.50
2017-09-26T19:45:41.116Z,82.40
2017-09-26T19:48:11.405Z,81.00
2017-09-26T19:50:43.666Z,81.60
2017-09-26T19:53:12.369Z,81.50
2017-09-26T19:55:45.990Z,81.10
2017-09-26T19:58:17.369Z,80.80
2017-09-26T20:00:47.217Z,81.30
2017-09-26T20:03:21.183Z,79.70
2017-09-26T20:05:50.696Z,80.50
2017-09-26T20:08:19.300Z,79.80
2017-09-26T20:10:48.168Z,80.00
2017-09-26T20:13:16.898Z,81.20
2017-09-26T20:15:48.940Z,80.50
2017-09-26T20:18:18.445Z,80.50
2017-09-26T20:20:48.061Z,78.30
2017-09-26T20:23:16.966Z,78.30
2017-09-26T20:25:47.273Z,77.80
2017-09-26T20:28:16.606Z,77.30
2017-09-26T20:30:45.576Z,77.20
2017-09-26T20:33:14.559Z,78.40
2017-09-26T20:35:44.103Z,79.60
2017-09-26T20:38:13.124Z,78.40
2017-09-26T20:40:41.869Z,77.80
2017-09-26T20:43:11.231Z,78.20
2017-09-26T20:45:39.833Z,76.90
2017-09-26T20:48:11.765Z,76.90
2017-09-26T20:50:42.721Z,77.30
2017-09-26T20:53:11.368Z,77.60
2017-09-26T20:55:40.806Z,76.80
2017-09-26T20:58:09.858Z,76.80
2017-09-26T21:00:38.723Z,77.80
2017-09-26T21:03:10.797Z,77.80
2017-09-26T21:05:40.510Z,77.80
2017-09-26T21:08:21.773Z,78.10
2017-09-26T21:10:53.648Z,77.70
2017-09-26T21:13:34.713Z,77.70
2017-09-26T21:16:04.383Z,78.20
2017-09-26T21:18:34.111Z,77.00
2017-09-26T21:21:03.169Z,76.90
2017-09-26T21:23:33.072Z,76.40
2017-09-26T21:26:02.172Z,76.10
2017-09-26T21:28:31.603Z,76.60
2017-09-26T21:31:02.052Z,76.70
2017-09-26T21:33:31.371Z,75.80
2017-09-26T21:36:00.693Z,76.20
2017-09-26T21:38:29.666Z,76.40
2017-09-26T21:41:04.532Z,76.70
2017-09-26T21:43:33.656Z,76.70
2017-09-26T21:46:02.537Z,77.00
2017-09-26T21:48:31.649Z,76.50
2017-09-26T21:51:00.527Z,75.90
2017-09-26T21:53:31.456Z,76.30
2017-09-26T21:56:02.494Z,73.10
2017-09-26T21:58:31.161Z,68.60
2017-09-26T22:01:00.576Z,66.50
2017-09-26T22:03:30.114Z,66.00
2017-09-26T22:06:00.341Z,66.30
2017-09-26T22:08:29.439Z,64.10
2017-09-26T22:10:58.325Z,63.90
2017-09-26T22:13:27.316Z,64.30
2017-09-26T22:15:57.240Z,66.00
2017-09-26T22:18:27.158Z,66.90
2017-09-26T22:20:57.082Z,65.80
2017-09-26T22:23:27.031Z,65.10
2017-09-26T22:25:56.330Z,65.40
2017-09-26T22:28:25.169Z,65.90
2017-09-26T22:30:54.060Z,65.20
2017-09-26T22:33:22.902Z,65.10
2017-09-26T22:35:52.072Z,63.70
2017-09-26T22:38:23.001Z,63.70
2017-09-26T22:40:52.597Z,63.70
2017-09-26T22:43:22.188Z,64.30
2017-09-26T22:45:50.994Z,64.50
2017-09-26T22:48:20.905Z,63.40
2017-09-26T22:50:49.794Z,63.20
2017-09-26T22:53:19.311Z,63.80
2017-09-26T22:55:49.229Z,63.60
2017-09-26T22:58:18.323Z,63.70
2017-09-26T23:00:47.524Z,62.70
2017-09-26T23:03:16.538Z,63.20
2017-09-26T23:05:45.499Z,63.40
2017-09-26T23:08:14.285Z,63.70
2017-09-26T23:10:44.003Z,67.60
